Bay Roberts, Canada
Current Conditions -  °F | °C
As of 1:00 PM on Saturday 20 Dec 2014 (Local Time) from CYYT Reporting Station
Broken Clouds Broken Clouds  
Wind Chill: 22°   Ceiling: 1700
Heat Index: 34°   Visibility: 15mi
Dew Point: 28°   Wind: 23mph
Humidity: 81%   Direction: 40°NE
Pressure: 30.06"   Gusts: 30mph
Location:  47.58°N, 53.3°W
Report Text: CYYT 201600Z 04020G26KT 15SM BKN017 01/M02 A3006 RMK SC5 SLP187
Loading
Personal Weather Stations






























Interactive Weather Map New forecast layout! Learn more

10-Day Weather Forecast

Advertisements
Track Severe Weather on mobile